Time;durP1;ratioP1;P1;durP2;ratioP2;P2;SDS_P1;SDS_P2;PMS_P1;PMS_P2;Temp;Humidity;BMP_temperature;BMP_pressure;BME280_temperature;BME280_humidity;BME280_pressure;Samples;Min_cycle;Max_cycle;Signal;HPM_P1;HPM_P2
2023/05/09 00:00:19;;;;;;;2.88;2.58;;;;;;;;;;5015400;28;20046;-31
2023/05/09 00:02:46;;;;;;;3.00;2.70;;;20.60;63.00;;;;;;5015251;28;20046;-31
2023/05/09 00:05:13;;;;;;;3.83;3.00;;;20.40;64.90;;;;;;5015408;28;20054;-31
2023/05/09 00:07:40;;;;;;;2.90;2.60;;;21.20;74.40;;;;;;5015445;28;20100;-30
2023/05/09 00:10:07;;;;;;;3.33;2.70;;;19.80;73.60;;;;;;5015840;28;20129;-31
2023/05/09 00:12:35;;;;;;;3.75;3.00;;;20.20;72.90;;;;;;5014979;28;20486;-31
2023/05/09 00:15:02;;;;;;;4.45;2.90;;;21.20;72.40;;;;;;5015383;28;20060;-30
2023/05/09 00:17:29;;;;;;;4.38;2.67;;;20.20;73.20;;;;;;5015269;28;20042;-31
2023/05/09 00:19:56;;;;;;;2.88;2.58;;;;;;;;;;5015071;28;20046;-30
2023/05/09 00:22:23;;;;;;;3.03;2.72;;;20.90;74.30;;;;;;5015075;28;20046;-30
2023/05/09 00:24:50;;;;;;;3.20;2.90;;;;;;;;;;5015336;28;20050;-31
2023/05/09 00:27:17;;;;;;;3.15;2.65;;;20.20;73.10;;;;;;5015259;28;20136;-31
2023/05/09 00:29:45;;;;;;;3.00;2.70;;;20.60;57.10;;;;;;5014734;28;20132;-30
2023/05/09 00:32:12;;;;;;;3.00;2.70;;;;;;;;;;5014798;28;20132;-30
2023/05/09 00:34:39;;;;;;;2.67;2.47;;;;;;;;;;5014635;28;20054;-31
2023/05/09 00:37:07;;;;;;;2.80;2.50;;;;;;;;;;5014324;28;20104;-30
2023/05/09 00:39:34;;;;;;;2.75;2.55;;;;;;;;;;5015399;28;20060;-31
2023/05/09 00:42:02;;;;;;;3.00;2.70;;;;;;;;;;5014626;28;20054;-30
2023/05/09 00:44:29;;;;;;;2.83;2.53;;;;;;;;;;4997213;28;20060;-30
2023/05/09 00:46:57;;;;;;;3.00;2.70;;;20.80;73.50;;;;;;5014640;28;20050;-30
2023/05/09 00:49:24;;;;;;;2.72;2.50;;;20.90;73.60;;;;;;5014552;28;20580;-31
2023/05/09 00:51:51;;;;;;;3.35;3.05;;;20.60;73.40;;;;;;5014315;28;20159;-31
2023/05/09 00:54:17;;;;;;;4.47;2.40;;;20.50;73.40;;;;;;5014305;28;20522;-30
2023/05/09 00:56:44;;;;;;;2.90;2.60;;;19.90;73.90;;;;;;5014673;28;20124;-31
2023/05/09 00:59:11;;;;;;;3.22;2.72;;;;;;;;;;5014492;28;20484;-31
2023/05/09 01:01:38;;;;;;;2.60;2.40;;;;;;;;;;5014422;28;20148;-31
2023/05/09 01:04:06;;;;;;;3.28;2.65;;;20.50;57.00;;;;;;5014062;28;20052;-30
2023/05/09 01:06:38;;;;;;;2.72;2.47;;;20.50;57.00;;;;;;5014277;28;20463;-30
2023/05/09 01:09:10;;;;;;;2.78;2.47;;;20.30;73.50;;;;;;5013996;28;20399;-31
2023/05/09 01:11:41;;;;;;;2.95;2.53;;;20.50;57.00;;;;;;5013725;28;20046;-31
2023/05/09 01:14:12;;;;;;;2.50;2.30;;;20.50;57.00;;;;;;5014231;28;20130;-30
2023/05/09 01:16:41;;;;;;;2.90;2.60;;;20.10;73.90;;;;;;5013795;28;20133;-31
2023/05/09 01:19:17;;;;;;;2.88;2.58;;;20.20;57.40;;;;;;5014279;28;20459;-30
2023/05/09 01:21:44;;;;;;;3.95;2.53;;;20.50;57.00;;;;;;5013949;28;20525;-30
2023/05/09 01:24:25;;;;;;;2.42;2.22;;;20.40;56.90;;;;;;4996280;28;20433;-31
2023/05/09 01:27:03;;;;;;;3.55;2.70;;;20.40;56.90;;;;;;5013708;28;20045;-31
2023/05/09 01:29:36;;;;;;;2.50;2.30;;;20.50;57.60;;;;;;5014387;28;20125;-31
2023/05/09 01:32:04;;;;;;;2.63;2.42;;;20.10;73.10;;;;;;5013593;28;20125;-31
2023/05/09 01:34:31;;;;;;;2.63;2.42;;;;;;;;;;5013514;28;20108;-31
2023/05/09 01:36:59;;;;;;;2.83;2.53;;;21.40;64.30;;;;;;5013458;28;20045;-30
2023/05/09 01:39:26;;;;;;;2.60;2.40;;;19.60;73.20;;;;;;5013640;28;20519;-31
2023/05/09 01:41:53;;;;;;;2.40;2.20;;;21.30;60.80;;;;;;5013735;28;20054;-31
2023/05/09 01:44:20;;;;;;;3.83;2.63;;;;;;;;;;5013455;28;20133;-31
2023/05/09 01:46:48;;;;;;;2.80;2.30;;;19.90;72.10;;;;;;5013520;28;20134;-30
2023/05/09 01:49:15;;;;;;;2.40;2.20;;;19.30;71.90;;;;;;5013459;28;20128;-30
2023/05/09 01:51:42;;;;;;;2.63;2.20;;;20.20;73.50;;;;;;5013291;28;20054;-31
2023/05/09 01:54:08;;;;;;;2.72;2.40;;;21.30;72.50;;;;;;5013468;28;20042;-31
2023/05/09 01:56:36;;;;;;;2.63;2.30;;;20.50;66.40;;;;;;5013488;28;20130;-30
2023/05/09 01:59:02;;;;;;;2.70;2.30;;;21.30;73.70;;;;;;5013087;28;20054;-31
2023/05/09 02:01:29;;;;;;;2.40;2.20;;;;;;;;;;5013389;28;20078;-30
2023/05/09 02:03:57;;;;;;;2.33;2.13;;;20.40;73.30;;;;;;5013288;28;20049;-30
2023/05/09 02:06:25;;;;;;;3.00;2.45;;;19.20;72.70;;;;;;5013655;28;20060;-31
2023/05/09 02:08:52;;;;;;;2.47;2.08;;;20.40;74.00;;;;;;5013303;28;20082;-31
2023/05/09 02:11:18;;;;;;;2.50;2.30;;;20.00;73.90;;;;;;5013192;28;20133;-31
2023/05/09 02:13:45;;;;;;;2.80;2.50;;;;;;;;;;5012645;28;20133;-30
2023/05/09 02:16:12;;;;;;;2.50;2.30;;;20.60;73.70;;;;;;5013376;28;20065;-31
2023/05/09 02:18:40;;;;;;;2.78;2.53;;;;;;;;;;5013328;28;20049;-31
2023/05/09 02:21:08;;;;;;;2.45;2.20;;;20.60;70.50;;;;;;5012758;28;20081;-30
2023/05/09 02:23:35;;;;;;;2.67;2.40;;;20.20;73.20;;;;;;5012636;28;20041;-31
2023/05/09 02:26:02;;;;;;;2.42;2.22;;;;;;;;;;5012990;28;20129;-30
2023/05/09 02:28:29;;;;;;;2.92;2.17;;;20.70;73.50;;;;;;4995239;28;20046;-30
2023/05/09 02:30:57;;;;;;;2.25;2.05;;;19.30;59.30;;;;;;5012734;28;20050;-30
2023/05/09 02:33:24;;;;;;;3.13;2.33;;;;;;;;;;5012676;28;20132;-30
2023/05/09 02:35:51;;;;;;;2.55;2.20;;;19.60;72.80;;;;;;5012652;28;20057;-31
2023/05/09 02:38:20;;;;;;;2.47;2.28;;;20.30;56.80;;;;;;5012455;28;20489;-30
2023/05/09 02:40:47;;;;;;;2.75;2.17;;;20.10;73.10;;;;;;5012855;28;20167;-30
2023/05/09 02:43:14;;;;;;;3.22;2.30;;;;;;;;;;5012024;28;20050;-31
2023/05/09 02:45:42;;;;;;;2.50;2.20;;;20.20;74.00;;;;;;5012734;28;20049;-30
2023/05/09 02:48:09;;;;;;;2.45;2.25;;;;;;;;;;5012324;28;20088;-29
2023/05/09 02:50:38;;;;;;;2.10;1.90;;;20.70;73.90;;;;;;5012165;28;20417;-31
2023/05/09 02:53:05;;;;;;;2.60;2.33;;;;;;;;;;5012534;28;20081;-30
2023/05/09 02:55:33;;;;;;;2.60;2.10;;;21.00;73.60;;;;;;5012429;28;20081;-31
2023/05/09 02:58:00;;;;;;;2.63;2.10;;;;;;;;;;5012355;28;20129;-31
2023/05/09 03:00:27;;;;;;;2.55;2.30;;;20.30;65.40;;;;;;5012139;28;20418;-30
2023/05/09 03:02:54;;;;;;;2.40;2.20;;;20.10;73.70;;;;;;5011846;28;20060;-30
2023/05/09 03:05:21;;;;;;;2.40;2.20;;;20.30;62.20;;;;;;5012692;28;20060;-31
2023/05/09 03:07:50;;;;;;;2.50;2.30;;;20.30;73.20;;;;;;5012205;28;20132;-31
2023/05/09 03:10:16;;;;;;;2.28;2.08;;;19.70;73.30;;;;;;5012344;28;20451;-30
2023/05/09 03:12:44;;;;;;;2.63;2.13;;;20.20;59.90;;;;;;5011320;28;20125;-30
2023/05/09 03:15:12;;;;;;;2.53;2.10;;;;;;;;;;5012270;28;20129;-30
2023/05/09 03:17:38;;;;;;;2.60;2.40;;;20.40;73.70;;;;;;5011905;28;20133;-31
2023/05/09 03:20:09;;;;;;;2.53;2.00;;;20.20;56.70;;;;;;5012456;28;20104;-30
2023/05/09 03:22:36;;;;;;;2.67;2.38;;;20.40;56.70;;;;;;5011687;28;20499;-30
2023/05/09 03:25:02;;;;;;;2.30;2.10;;;19.50;72.80;;;;;;5011636;28;20494;-31
2023/05/09 03:27:29;;;;;;;2.72;2.40;;;20.60;74.20;;;;;;5012082;28;20272;-31
2023/05/09 03:29:57;;;;;;;2.53;2.33;;;20.50;65.00;;;;;;5011695;28;20088;-30
2023/05/09 03:32:24;;;;;;;2.67;2.40;;;20.40;67.30;;;;;;5011659;28;20057;-30
2023/05/09 03:34:51;;;;;;;2.53;2.30;;;19.90;72.90;;;;;;5011635;28;20128;-31
2023/05/09 03:37:18;;;;;;;2.20;2.00;;;;;;;;;;5011721;28;20128;-30
2023/05/09 03:39:45;;;;;;;2.70;2.50;;;19.90;73.00;;;;;;5011808;28;20133;-31
2023/05/09 03:42:12;;;;;;;3.13;2.58;;;;;;;;;;5011469;28;20049;-30
2023/05/09 03:44:39;;;;;;;2.35;2.15;;;;;;;;;;5011866;28;20123;-30
2023/05/09 03:47:07;;;;;;;2.35;2.15;;;20.10;74.00;;;;;;5011396;28;20112;-31
2023/05/09 03:49:34;;;;;;;2.30;2.10;;;19.00;72.50;;;;;;5011826;28;20129;-31
2023/05/09 03:52:01;;;;;;;2.28;2.08;;;21.20;63.80;;;;;;5011681;28;20052;-30
2023/05/09 03:54:27;;;;;;;2.55;2.35;;;20.30;73.30;;;;;;5011452;28;20491;-31
2023/05/09 03:56:54;;;;;;;2.20;2.00;;;;;;;;;;5011685;28;20136;-31
2023/05/09 03:59:21;;;;;;;2.50;2.30;;;20.40;73.30;;;;;;5011514;28;20048;-30
2023/05/09 04:01:48;;;;;;;2.40;2.20;;;19.60;73.70;;;;;;5011773;28;20045;-30
2023/05/09 04:04:16;;;;;;;2.90;2.50;;;20.10;56.60;;;;;;5011384;28;20085;-29
2023/05/09 04:06:43;;;;;;;2.53;2.30;;;;;;;;;;5011828;28;20046;-30
2023/05/09 04:09:11;;;;;;;2.30;2.10;;;;;;;;;;5011231;28;20129;-31
2023/05/09 04:11:37;;;;;;;3.35;2.40;;;19.80;68.50;;;;;;5011430;28;20481;-30
2023/05/09 04:14:05;;;;;;;2.72;2.22;;;;;;;;;;5011681;28;20137;-31
2023/05/09 04:16:32;;;;;;;2.50;2.30;;;19.10;73.10;;;;;;5011409;28;20449;-31
2023/05/09 04:18:59;;;;;;;2.50;2.30;;;;;;;;;;5011673;28;20049;-30
2023/05/09 04:21:27;;;;;;;2.50;2.25;;;20.10;56.50;;;;;;5011111;28;20060;-31
2023/05/09 04:23:54;;;;;;;2.95;2.55;;;19.80;73.00;;;;;;5011008;28;20129;-31
2023/05/09 04:26:21;;;;;;;2.60;2.30;;;19.20;72.80;;;;;;5011495;28;20482;-31
2023/05/09 04:28:48;;;;;;;2.55;2.35;;;20.20;73.60;;;;;;5011285;28;20073;-31
2023/05/09 04:31:15;;;;;;;2.40;2.20;;;20.40;73.40;;;;;;5011652;28;20050;-31
2023/05/09 04:33:42;;;;;;;2.50;2.30;;;;;;;;;;5011166;28;20144;-30
2023/05/09 04:36:09;;;;;;;2.53;2.33;;;19.00;72.50;;;;;;5011255;28;20124;-30
2023/05/09 04:38:37;;;;;;;2.55;2.35;;;20.10;56.50;;;;;;5010648;28;20046;-30
2023/05/09 04:41:04;;;;;;;2.67;2.30;;;;;;;;;;4993714;28;20371;-31
2023/05/09 04:43:31;;;;;;;2.42;2.22;;;19.10;73.00;;;;;;5010977;28;20053;-30
2023/05/09 04:45:58;;;;;;;2.53;2.33;;;20.00;66.00;;;;;;5013348;28;20128;-31
2023/05/09 04:48:25;;;;;;;2.50;2.30;;;19.70;72.90;;;;;;5014842;28;20054;-30
2023/05/09 04:50:51;;;;;;;2.72;2.40;;;20.10;70.10;;;;;;5014503;28;20563;-31
2023/05/09 04:53:19;;;;;;;3.00;2.70;;;18.90;58.00;;;;;;5013992;28;20129;-30
2023/05/09 04:55:47;;;;;;;2.60;2.40;;;20.50;73.40;;;;;;5014877;28;20112;-31
2023/05/09 04:58:13;;;;;;;2.80;2.58;;;20.10;73.70;;;;;;5014418;28;20046;-30
2023/05/09 05:00:41;;;;;;;2.55;2.35;;;;;;;;;;5014806;28;20052;-30
2023/05/09 05:03:07;;;;;;;2.47;2.28;;;20.50;73.80;;;;;;5014023;28;20079;-30
2023/05/09 05:05:34;;;;;;;3.17;2.88;;;19.70;73.00;;;;;;5014653;28;20088;-31
2023/05/09 05:08:01;;;;;;;3.08;2.40;;;19.20;62.60;;;;;;5013642;28;20056;-31
2023/05/09 05:10:29;;;;;;;2.65;2.45;;;20.20;63.30;;;;;;5014601;28;20054;-30
2023/05/09 05:12:57;;;;;;;2.70;2.50;;;19.90;69.60;;;;;;5007153;28;20061;-30
2023/05/09 05:15:25;;;;;;;2.88;2.58;;;;;;;;;;4994790;28;20478;-31
2023/05/09 05:17:52;;;;;;;2.92;2.60;;;20.60;71.50;;;;;;4994712;28;20054;-31
2023/05/09 05:20:20;;;;;;;2.53;2.33;;;;;;;;;;4994602;28;20121;-29
2023/05/09 05:22:46;;;;;;;2.70;2.40;;;20.40;73.40;;;;;;5005697;28;20057;-31
2023/05/09 05:25:13;;;;;;;2.70;2.50;;;;;;;;;;5013436;28;20065;-30
2023/05/09 05:27:40;;;;;;;2.58;2.35;;;19.70;73.20;;;;;;5013858;28;20116;-31
2023/05/09 05:30:09;;;;;;;3.17;2.88;;;20.20;73.10;;;;;;4995860;28;20052;-30
2023/05/09 05:32:36;;;;;;;2.95;2.65;;;20.00;73.60;;;;;;5013101;28;20050;-30
2023/05/09 05:35:03;;;;;;;3.83;2.50;;;21.10;73.80;;;;;;5013994;28;20084;-31
2023/05/09 05:37:30;;;;;;;2.90;2.60;;;20.50;73.40;;;;;;5007507;28;20045;-31
2023/05/09 05:39:57;;;;;;;2.60;2.40;;;20.10;73.30;;;;;;5013834;28;20069;-30
2023/05/09 05:42:24;;;;;;;2.78;2.40;;;;;;;;;;5010712;28;20053;-30
2023/05/09 05:44:51;;;;;;;2.85;2.47;;;20.90;74.20;;;;;;5010702;28;20132;-31
2023/05/09 05:47:19;;;;;;;3.33;2.47;;;20.60;73.80;;;;;;5013873;28;20599;-31
2023/05/09 05:49:45;;;;;;;3.40;2.78;;;20.60;74.30;;;;;;5012919;28;20133;-31
2023/05/09 05:52:13;;;;;;;2.65;2.45;;;;;;;;;;5012954;28;20153;-30
2023/05/09 05:54:40;;;;;;;4.47;2.58;;;19.70;73.00;;;;;;5013329;28;20049;-31
2023/05/09 05:57:07;;;;;;;3.47;2.70;;;20.20;68.90;;;;;;5013086;28;20049;-30
2023/05/09 05:59:33;;;;;;;3.67;2.70;;;19.50;73.80;;;;;;5011366;28;20050;-31
2023/05/09 06:02:01;;;;;;;3.30;3.00;;;;;;;;;;5007227;28;20153;-30
2023/05/09 06:04:29;;;;;;;5.15;3.22;;;19.50;74.00;;;;;;5003986;28;20132;-31
2023/05/09 06:06:55;;;;;;;3.72;2.80;;;20.20;73.90;;;;;;5003632;28;20053;-31
2023/05/09 06:09:23;;;;;;;3.58;2.55;;;;;;;;;;5013315;28;20410;-30
2023/05/09 06:11:49;;;;;;;3.00;2.70;;;18.80;73.20;;;;;;5013372;28;20153;-31
2023/05/09 06:14:16;;;;;;;3.22;2.55;;;;;;;;;;5013243;28;20049;-31
2023/05/09 06:16:43;;;;;;;4.18;2.80;;;21.10;69.50;;;;;;5013128;28;20133;-30
2023/05/09 06:19:10;;;;;;;3.17;2.88;;;20.00;73.60;;;;;;5013177;28;20069;-31
2023/05/09 06:21:38;;;;;;;3.60;2.85;;;20.10;74.50;;;;;;5013325;28;20060;-30
2023/05/09 06:24:05;;;;;;;3.70;2.80;;;20.00;73.60;;;;;;5012280;28;20127;-31
2023/05/09 06:26:32;;;;;;;3.10;2.80;;;19.10;73.20;;;;;;5013277;28;20406;-31
2023/05/09 06:28:59;;;;;;;3.33;2.85;;;19.90;72.00;;;;;;5012805;28;20139;-31
2023/05/09 06:31:26;;;;;;;4.28;2.58;;;19.10;67.20;;;;;;5013207;28;20107;-31
2023/05/09 06:33:52;;;;;;;3.33;3.00;;;19.90;74.60;;;;;;5012364;28;20042;-31
2023/05/09 06:36:19;;;;;;;3.47;2.78;;;20.20;74.70;;;;;;5012244;28;20052;-31
2023/05/09 06:38:47;;;;;;;6.45;3.05;;;20.20;70.10;;;;;;5013186;28;20494;-30
2023/05/09 06:41:14;;;;;;;3.10;2.80;;;19.90;65.40;;;;;;5012752;28;20133;-31
2023/05/09 06:43:40;;;;;;;3.15;2.85;;;19.30;73.40;;;;;;5012592;28;20508;-31
2023/05/09 06:46:07;;;;;;;3.15;2.80;;;20.60;74.10;;;;;;5009848;28;20129;-31
2023/05/09 06:48:34;;;;;;;4.25;2.75;;;20.10;74.20;;;;;;5001659;28;20053;-31
2023/05/09 06:51:01;;;;;;;3.10;2.80;;;20.90;74.40;;;;;;4993306;28;20051;-30
2023/05/09 06:53:28;;;;;;;3.60;2.90;;;;;;;;;;4992595;28;20101;-30
2023/05/09 06:55:56;;;;;;;3.13;2.72;;;19.60;73.70;;;;;;4993158;28;20058;-30
2023/05/09 06:58:23;;;;;;;3.22;2.92;;;;;;;;;;4992881;28;20054;-30
2023/05/09 07:00:50;;;;;;;3.05;2.75;;;;;;;;;;4994308;28;20403;-30
2023/05/09 07:03:17;;;;;;;3.85;3.00;;;;;;;;;;5011849;28;20102;-30
2023/05/09 07:05:44;;;;;;;3.95;3.10;;;;;;;;;;5012459;28;20126;-30
2023/05/09 07:08:11;;;;;;;4.32;3.00;;;20.00;74.70;;;;;;5011804;28;20129;-30
2023/05/09 07:10:39;;;;;;;3.28;2.72;;;;;;;;;;5012149;28;20046;-30
2023/05/09 07:13:07;;;;;;;3.40;3.10;;;20.50;74.70;;;;;;5011879;28;20104;-30
2023/05/09 07:15:34;;;;;;;3.63;2.75;;;19.60;73.90;;;;;;5012135;28;20483;-31
2023/05/09 07:18:01;;;;;;;5.55;2.90;;;20.20;66.90;;;;;;5012334;28;20060;-30
2023/05/09 07:20:27;;;;;;;3.30;3.00;;;19.70;74.30;;;;;;5012407;28;20049;-31
2023/05/09 07:22:54;;;;;;;4.47;3.13;;;21.00;74.80;;;;;;5011716;28;20132;-31
2023/05/09 07:25:21;;;;;;;4.00;2.97;;;20.10;65.20;;;;;;5012047;28;20104;-31
2023/05/09 07:27:48;;;;;;;4.07;2.97;;;;;;;;;;5011902;28;20081;-30
2023/05/09 07:30:16;;;;;;;3.42;3.10;;;20.00;57.80;;;;;;5012166;28;20056;-30
2023/05/09 07:32:43;;;;;;;3.80;3.38;;;;;;;;;;5011449;28;20124;-30
2023/05/09 07:35:10;;;;;;;3.80;3.40;;;20.50;75.40;;;;;;5011722;28;20060;-31
2023/05/09 07:37:37;;;;;;;3.95;3.20;;;;;;;;;;5007996;28;20446;-29
2023/05/09 07:40:05;;;;;;;5.43;3.13;;;20.30;74.50;;;;;;5011692;28;20041;-30
2023/05/09 07:42:32;;;;;;;4.38;3.38;;;20.70;75.50;;;;;;5010647;28;20046;-30
2023/05/09 07:44:59;;;;;;;4.03;3.40;;;;;;;;;;5009074;28;20421;-30
2023/05/09 07:47:27;;;;;;;3.63;3.33;;;20.40;74.90;;;;;;5010125;28;20077;-30
2023/05/09 07:49:54;;;;;;;3.80;3.40;;;20.40;74.60;;;;;;4999904;28;20046;-30
2023/05/09 07:52:21;;;;;;;3.97;3.40;;;21.20;75.30;;;;;;4999661;28;20049;-31
2023/05/09 07:54:48;;;;;;;3.78;3.38;;;;;;;;;;5000897;28;20463;-30
2023/05/09 07:57:15;;;;;;;4.30;3.28;;;19.60;74.80;;;;;;5003086;28;20101;-31
2023/05/09 07:59:42;;;;;;;4.88;3.70;;;19.90;75.00;;;;;;5000435;28;20038;-31
2023/05/09 08:02:09;;;;;;;3.63;3.25;;;;;;;;;;5000205;28;20058;-30
2023/05/09 08:04:37;;;;;;;3.53;3.03;;;20.30;71.00;;;;;;5001653;28;20490;-31
2023/05/09 08:07:05;;;;;;;5.78;3.10;;;20.20;61.80;;;;;;5003061;28;20046;-31
2023/05/09 08:09:32;;;;;;;7.38;3.30;;;20.40;62.90;;;;;;5004053;28;20376;-31
2023/05/09 08:11:59;;;;;;;3.88;3.38;;;19.70;75.30;;;;;;5007615;28;20053;-31
2023/05/09 08:14:26;;;;;;;5.03;3.70;;;19.80;75.30;;;;;;5001378;28;20053;-31
2023/05/09 08:16:53;;;;;;;4.50;3.92;;;19.80;62.20;;;;;;4998081;28;20121;-30
2023/05/09 08:19:19;;;;;;;3.85;3.40;;;20.80;75.10;;;;;;4997053;28;20054;-31
2023/05/09 08:21:48;;;;;;;5.28;3.90;;;19.80;59.00;;;;;;5004416;28;20058;-31
2023/05/09 08:24:15;;;;;;;4.65;3.55;;;;;;;;;;5007909;28;20132;-30
2023/05/09 08:26:42;;;;;;;5.00;4.10;;;20.40;74.70;;;;;;5015284;28;20050;-31
2023/05/09 08:29:10;;;;;;;4.18;3.72;;;19.90;74.40;;;;;;5014211;28;20521;-31
2023/05/09 08:31:37;;;;;;;4.43;3.72;;;;;;;;;;5012040;28;20046;-30
2023/05/09 08:34:04;;;;;;;4.30;3.60;;;19.70;75.10;;;;;;5013682;28;20056;-30
2023/05/09 08:36:31;;;;;;;4.80;4.10;;;19.60;74.20;;;;;;5010923;28;20467;-31
2023/05/09 08:38:59;;;;;;;6.07;4.10;;;19.10;74.70;;;;;;5014428;28;20050;-31
2023/05/09 08:41:26;;;;;;;5.85;4.25;;;19.80;74.60;;;;;;5014520;28;20049;-31
2023/05/09 08:43:53;;;;;;;4.50;4.03;;;;;;;;;;5014614;28;20096;-30
2023/05/09 08:46:24;;;;;;;4.72;3.92;;;20.10;74.40;;;;;;4997005;28;20052;-31
2023/05/09 08:48:51;;;;;;;5.25;4.25;;;20.10;74.40;;;;;;5014148;28;20129;-31
2023/05/09 08:51:18;;;;;;;4.95;3.85;;;;;;;;;;5011888;28;20080;-30
2023/05/09 08:53:45;;;;;;;4.30;3.83;;;19.80;75.00;;;;;;5014256;28;20049;-31
2023/05/09 08:56:13;;;;;;;5.35;4.40;;;20.00;57.80;;;;;;5014562;28;20060;-30
2023/05/09 08:58:40;;;;;;;6.47;4.70;;;20.40;68.00;;;;;;5012158;28;20052;-30
2023/05/09 09:01:07;;;;;;;7.20;4.35;;;20.00;74.10;;;;;;5014121;28;20132;-31
2023/05/09 09:03:34;;;;;;;5.75;3.70;;;;;;;;;;5013485;28;20054;-30
2023/05/09 09:06:01;;;;;;;4.65;4.20;;;20.20;74.30;;;;;;5014571;28;20056;-31
2023/05/09 09:08:27;;;;;;;4.53;4.00;;;20.70;74.90;;;;;;5005744;28;20541;-30
2023/05/09 09:10:54;;;;;;;5.85;4.18;;;;;;;;;;5003640;28;20124;-31
2023/05/09 09:13:22;;;;;;;4.90;4.05;;;20.20;75.20;;;;;;4994651;28;20133;-31
2023/05/09 09:15:50;;;;;;;5.57;4.10;;;20.00;74.80;;;;;;4998844;28;20074;-31
2023/05/09 09:18:21;;;;;;;5.18;4.20;;;19.90;74.40;;;;;;5010128;28;20054;-31
2023/05/09 09:20:49;;;;;;;6.13;4.82;;;20.00;72.70;;;;;;5011466;28;20507;-31
2023/05/09 09:23:18;;;;;;;4.95;4.13;;;20.10;58.10;;;;;;5014003;28;20088;-31
2023/05/09 09:25:45;;;;;;;5.78;4.32;;;19.60;58.80;;;;;;5013982;28;20060;-31
2023/05/09 09:28:12;;;;;;;6.45;4.18;;;20.30;74.60;;;;;;5014168;28;20129;-31
2023/05/09 09:30:46;;;;;;;5.07;4.00;;;19.70;66.70;;;;;;5012640;28;20409;-31
2023/05/09 09:33:19;;;;;;;4.63;3.90;;;20.00;58.10;;;;;;5013662;28;20160;-30
2023/05/09 09:35:46;;;;;;;4.60;3.70;;;20.20;75.40;;;;;;4998903;28;20074;-31
2023/05/09 09:38:13;;;;;;;5.90;4.15;;;;;;;;;;5011567;28;20056;-31
2023/05/09 09:40:40;;;;;;;6.25;3.97;;;19.80;74.50;;;;;;5013635;28;20137;-31
2023/05/09 09:43:06;;;;;;;5.85;3.78;;;20.50;75.20;;;;;;5012799;28;20053;-31
2023/05/09 09:45:33;;;;;;;4.45;4.00;;;19.30;57.70;;;;;;5012818;28;20049;-30
2023/05/09 09:48:01;;;;;;;6.05;3.90;;;20.10;58.10;;;;;;5013442;28;20399;-30
2023/05/09 09:50:28;;;;;;;4.68;3.78;;;20.00;75.20;;;;;;5013247;28;20052;-31
2023/05/09 09:52:56;;;;;;;5.28;3.97;;;20.30;74.70;;;;;;5013405;28;20132;-31
2023/05/09 09:55:23;;;;;;;5.95;4.47;;;20.10;58.10;;;;;;5013544;28;20050;-31
2023/05/09 09:57:50;;;;;;;5.18;4.05;;;20.30;66.40;;;;;;5013753;28;20570;-31
2023/05/09 10:00:18;;;;;;;5.55;4.22;;;20.10;58.10;;;;;;5013236;28;20074;-31
2023/05/09 10:02:49;;;;;;;5.03;4.35;;;19.90;74.60;;;;;;5013442;28;20054;-31
2023/05/09 10:05:21;;;;;;;6.00;4.18;;;20.10;58.10;;;;;;5013434;28;20085;-31
2023/05/09 10:07:52;;;;;;;5.57;4.40;;;20.70;61.50;;;;;;5013427;28;20060;-30
2023/05/09 10:10:18;;;;;;;5.45;4.18;;;20.50;75.30;;;;;;5013416;28;20410;-31
2023/05/09 10:12:45;;;;;;;6.43;4.78;;;20.60;74.90;;;;;;5011398;28;20550;-31
2023/05/09 10:15:12;;;;;;;5.93;4.28;;;;;;;;;;4992812;28;20129;-31
2023/05/09 10:17:39;;;;;;;5.60;4.30;;;19.80;74.50;;;;;;4993436;28;20061;-31
2023/05/09 10:20:07;;;;;;;8.05;4.70;;;19.50;74.40;;;;;;5005065;28;20080;-31
2023/05/09 10:22:35;;;;;;;5.20;4.30;;;20.40;75.20;;;;;;5012538;28;20136;-31
2023/05/09 10:25:03;;;;;;;5.40;4.47;;;20.70;75.00;;;;;;5013276;28;20137;-31
2023/05/09 10:27:31;;;;;;;7.22;4.88;;;20.10;58.30;;;;;;5009554;28;20053;-31
2023/05/09 10:30:01;;;;;;;7.75;5.30;;;20.20;68.70;;;;;;5007254;28;20056;-31
2023/05/09 10:32:31;;;;;;;9.52;5.60;;;20.10;58.40;;;;;;5005477;28;20045;-30
2023/05/09 10:35:01;;;;;;;6.82;5.15;;;20.10;58.40;;;;;;5011908;28;20128;-31
2023/05/09 10:37:28;;;;;;;7.07;5.22;;;19.80;74.70;;;;;;5012710;28;20133;-31
2023/05/09 10:39:56;;;;;;;7.55;5.70;;;20.10;58.50;;;;;;5012928;28;20132;-30
2023/05/09 10:42:24;;;;;;;9.20;5.53;;;;;;;;;;5010696;28;20470;-30
2023/05/09 10:44:51;;;;;;;7.03;5.40;;;21.10;75.50;;;;;;5003312;28;20046;-31
2023/05/09 10:47:17;;;;;;;6.95;5.35;;;20.00;74.90;;;;;;5001647;28;20463;-31
2023/05/09 10:49:44;;;;;;;8.35;5.57;;;20.00;64.00;;;;;;4995015;28;20056;-31
2023/05/09 10:52:11;;;;;;;10.45;5.80;;;;;;;;;;5010229;28;20125;-31
2023/05/09 10:54:38;;;;;;;7.78;5.72;;;18.90;74.40;;;;;;5003275;28;20384;-31
2023/05/09 10:57:08;;;;;;;6.70;5.40;;;20.10;58.50;;;;;;5006818;28;20042;-30
2023/05/09 10:59:36;;;;;;;5.95;4.90;;;20.10;58.40;;;;;;5011991;28;20125;-31
2023/05/09 11:02:04;;;;;;;6.20;4.75;;;;;;;;;;5011677;28;20038;-31
2023/05/09 11:04:31;;;;;;;6.22;4.63;;;20.40;75.70;;;;;;5012138;28;20050;-31
2023/05/09 11:06:58;;;;;;;7.28;4.63;;;;;;;;;;5012686;28;20072;-30
2023/05/09 11:09:31;;;;;;;6.13;4.97;;;19.00;74.20;;;;;;5012530;28;20129;-31
2023/05/09 11:12:02;;;;;;;7.03;5.15;;;20.10;58.10;;;;;;5011597;28;20141;-31
2023/05/09 11:14:31;;;;;;;5.82;4.85;;;19.80;75.30;;;;;;5002631;28;20133;-31
2023/05/09 11:16:59;;;;;;;5.97;4.80;;;20.10;58.00;;;;;;5008345;28;20084;-30
2023/05/09 11:19:36;;;;;;;7.18;5.10;;;20.00;57.90;;;;;;5009296;28;20045;-30
2023/05/09 11:22:10;;;;;;;7.32;4.63;;;19.90;74.30;;;;;;5009616;28;20462;-31
2023/05/09 11:24:38;;;;;;;5.72;4.53;;;20.00;57.80;;;;;;5007666;28;20526;-30
2023/05/09 11:27:05;;;;;;;6.32;4.78;;;20.40;62.80;;;;;;5011674;28;20049;-30
2023/05/09 11:29:44;;;;;;;6.45;4.47;;;20.10;57.80;;;;;;5008718;28;20413;-30
2023/05/09 11:32:13;;;;;;;6.30;4.70;;;20.10;57.80;;;;;;5007393;28;20045;-31
2023/05/09 11:34:42;;;;;;;7.53;4.90;;;19.80;58.10;;;;;;4991088;28;20627;-31
2023/05/09 11:37:09;;;;;;;5.70;4.45;;;20.10;68.60;;;;;;5002907;28;20130;-31
2023/05/09 11:39:36;;;;;;;6.03;4.65;;;20.20;74.30;;;;;;5012186;28;20483;-31
2023/05/09 11:42:04;;;;;;;5.40;4.65;;;20.30;64.60;;;;;;5011266;28;20058;-30
2023/05/09 11:44:32;;;;;;;5.78;4.78;;;20.30;71.60;;;;;;5011852;28;20045;-31
2023/05/09 11:47:00;;;;;;;6.70;5.07;;;20.00;57.60;;;;;;5011797;28;20049;-30
2023/05/09 11:49:28;;;;;;;6.95;5.55;;;19.80;58.30;;;;;;5012033;28;20100;-30
2023/05/09 11:51:55;;;;;;;7.20;5.18;;;;;;;;;;5011692;28;20046;-31
2023/05/09 11:54:23;;;;;;;6.30;5.10;;;19.90;73.90;;;;;;5012273;28;20133;-31
2023/05/09 11:56:50;;;;;;;6.60;5.18;;;19.70;65.70;;;;;;5009366;28;20134;-31
2023/05/09 11:59:17;;;;;;;6.43;5.18;;;19.60;64.40;;;;;;5004136;28;20097;-31
2023/05/09 12:01:44;;;;;;;7.13;5.05;;;19.90;74.40;;;;;;5011338;28;20104;-31
2023/05/09 12:04:12;;;;;;;6.40;5.10;;;19.10;74.00;;;;;;5011947;28;20842;-31
2023/05/09 12:06:39;;;;;;;6.18;5.00;;;19.70;59.70;;;;;;5013589;28;20125;-31
2023/05/09 12:09:07;;;;;;;6.45;4.78;;;;;;;;;;5014180;28;20061;-30
2023/05/09 12:11:35;;;;;;;6.90;5.13;;;20.00;66.10;;;;;;5014101;28;20413;-31
2023/05/09 12:14:04;;;;;;;8.55;5.45;;;;;;;;;;5013854;28;20050;-31
2023/05/09 12:16:30;;;;;;;11.50;5.47;;;20.10;74.60;;;;;;5014131;28;20053;-31
2023/05/09 12:18:57;;;;;;;7.15;5.80;;;20.30;68.70;;;;;;5014559;28;20136;-31
2023/05/09 12:21:27;;;;;;;7.45;5.60;;;20.10;57.20;;;;;;5015191;28;20145;-31
2023/05/09 12:23:55;;;;;;;7.53;5.65;;;20.20;74.70;;;;;;5015233;28;20129;-31
2023/05/09 12:26:22;;;;;;;7.90;5.55;;;;;;;;;;5015699;28;20129;-30
2023/05/09 12:28:49;;;;;;;6.68;5.38;;;20.20;73.90;;;;;;5015073;28;20133;-30
2023/05/09 12:31:17;;;;;;;7.15;5.53;;;;;;;;;;5015031;28;20096;-31
2023/05/09 12:33:44;;;;;;;7.68;5.68;;;20.90;75.10;;;;;;4995091;28;20050;-31
2023/05/09 12:36:12;;;;;;;7.43;5.30;;;20.00;74.60;;;;;;4998613;28;20128;-31
2023/05/09 12:38:41;;;;;;;7.00;5.53;;;20.30;74.10;;;;;;5014944;28;20521;-31
2023/05/09 12:41:09;;;;;;;9.15;5.63;;;20.10;57.40;;;;;;5015122;28;20058;-31
2023/05/09 12:43:36;;;;;;;7.03;5.20;;;20.00;71.90;;;;;;5014546;28;20128;-31
2023/05/09 12:46:03;;;;;;;7.85;5.80;;;20.50;65.80;;;;;;5014842;28;20494;-31
2023/05/09 12:48:36;;;;;;;8.63;6.05;;;20.30;74.40;;;;;;4997717;28;20110;-31
2023/05/09 12:51:03;;;;;;;7.60;6.07;;;20.10;58.90;;;;;;5014746;28;20045;-30
2023/05/09 12:53:30;;;;;;;7.18;5.55;;;19.70;73.80;;;;;;5014796;28;20133;-31
2023/05/09 12:56:03;;;;;;;7.45;5.72;;;20.50;72.30;;;;;;5014752;28;20045;-31
2023/05/09 12:58:30;;;;;;;6.57;5.70;;;19.80;73.80;;;;;;5014711;28;20061;-31
2023/05/09 13:00:57;;;;;;;7.97;5.68;;;;;;;;;;5014248;28;20046;-31
2023/05/09 13:03:25;;;;;;;7.00;5.68;;;20.30;74.20;;;;;;5014490;28;20092;-31
2023/05/09 13:05:56;;;;;;;7.72;6.00;;;20.20;74.60;;;;;;5013614;28;20494;-31
2023/05/09 13:08:23;;;;;;;8.10;6.20;;;20.10;74.40;;;;;;5014294;28;20053;-31
2023/05/09 13:10:50;;;;;;;9.02;6.35;;;;;;;;;;5014349;28;20046;-30